createdAt,value
2016-05-24T00:00:24.841Z,19.7
2016-05-24T00:01:24.703Z,19.66
2016-05-24T00:02:24.972Z,19.63
2016-05-24T00:03:24.912Z,19.58
2016-05-24T00:04:24.931Z,19.73
2016-05-24T00:05:24.964Z,19.71
2016-05-24T00:06:24.998Z,19.7
2016-05-24T00:07:25.016Z,19.66
2016-05-24T00:08:25.050Z,19.69
2016-05-24T00:09:25.069Z,19.71
2016-05-24T00:10:25.087Z,19.69
2016-05-24T00:11:25.120Z,19.71
2016-05-24T00:12:25.155Z,19.66
2016-05-24T00:13:25.189Z,19.76
2016-05-24T00:14:25.503Z,19.64
2016-05-24T00:15:25.210Z,19.66
2016-05-24T00:16:24.931Z,19.69
2016-05-24T00:17:25.262Z,19.66
2016-05-24T00:18:25.296Z,19.71
2016-05-24T00:19:25.314Z,19.7
2016-05-24T00:20:25.349Z,19.64
2016-05-24T00:21:25.367Z,19.79
2016-05-24T00:22:25.385Z,19.64
2016-05-24T00:23:25.419Z,19.7
2016-05-24T00:24:25.437Z,19.66
2016-05-24T00:25:25.330Z,19.7
2016-05-24T00:26:25.504Z,19.69
2016-05-24T00:27:25.555Z,19.69
2016-05-24T00:28:25.557Z,19.73
2016-05-24T00:29:26.091Z,19.63
2016-05-24T00:30:25.609Z,19.67
2016-05-24T00:31:25.629Z,19.58
2016-05-24T00:32:25.662Z,19.7
2016-05-24T00:33:25.680Z,19.69
2016-05-24T00:34:25.729Z,19.69
2016-05-24T00:35:25.732Z,19.69
2016-05-24T00:36:25.766Z,19.55
2016-05-24T00:37:25.628Z,19.63
2016-05-24T00:38:25.818Z,19.62
2016-05-24T00:39:25.853Z,19.58
2016-05-24T00:40:25.856Z,19.64
2016-05-24T00:41:25.905Z,19.73
2016-05-24T00:42:25.908Z,19.59
2016-05-24T00:43:25.956Z,19.63
2016-05-24T00:44:25.647Z,19.62
2016-05-24T00:45:25.978Z,19.69
2016-05-24T00:46:26.012Z,19.58
2016-05-24T00:47:26.046Z,19.52
2016-05-24T00:48:26.095Z,19.64
2016-05-24T00:49:26.083Z,19.64
2016-05-24T00:50:26.117Z,19.63
2016-05-24T00:51:26.135Z,19.71
2016-05-24T00:52:26.169Z,19.59
2016-05-24T00:53:26.187Z,19.69
2016-05-24T00:54:26.065Z,19.58
2016-05-24T00:55:26.239Z,19.62
2016-05-24T00:56:26.274Z,19.55
2016-05-24T00:57:26.291Z,19.59
2016-05-24T00:58:26.326Z,19.56
2016-05-24T00:59:26.187Z,19.51
2016-05-24T01:00:26.373Z,19.62
2016-05-24T01:01:26.419Z,19.67
2016-05-24T01:02:26.482Z,19.58
2016-05-24T01:03:26.545Z,19.63
2016-05-24T01:04:26.591Z,19.54
2016-05-24T01:05:26.646Z,19.55
2016-05-24T01:06:26.690Z,19.64
2016-05-24T01:07:26.718Z,19.55
2016-05-24T01:08:26.747Z,19.59
2016-05-24T01:09:26.776Z,19.58
2016-05-24T01:10:26.802Z,19.62
2016-05-24T01:11:26.683Z,19.64
2016-05-24T01:12:26.861Z,19.59
2016-05-24T01:13:26.899Z,19.51
2016-05-24T01:14:26.656Z,19.59
2016-05-24T01:15:26.959Z,19.58
2016-05-24T01:16:26.977Z,19.59
2016-05-24T01:17:27.012Z,19.64
2016-05-24T01:18:27.032Z,19.56
2016-05-24T01:19:26.910Z,19.54
2016-05-24T01:20:27.086Z,19.74
2016-05-24T01:21:27.121Z,19.62
2016-05-24T01:22:26.983Z,19.7
2016-05-24T01:23:27.158Z,19.55
2016-05-24T01:24:27.192Z,19.62
2016-05-24T01:25:27.055Z,19.59
2016-05-24T01:26:27.088Z,19.56
2016-05-24T01:27:27.264Z,19.54
2016-05-24T01:28:27.297Z,19.59
2016-05-24T01:29:27.442Z,19.58
2016-05-24T01:30:27.350Z,19.62
2016-05-24T01:31:27.370Z,19.63
2016-05-24T01:32:27.404Z,19.58
2016-05-24T01:33:27.266Z,19.56
2016-05-24T01:34:27.283Z,19.64
2016-05-24T01:35:27.474Z,19.63
2016-05-24T01:36:27.491Z,19.67
2016-05-24T01:37:27.527Z,19.62
2016-05-24T01:38:27.545Z,19.58
2016-05-24T01:39:27.578Z,19.52
2016-05-24T01:40:27.597Z,19.63
2016-05-24T01:41:27.474Z,19.58
2016-05-24T01:42:27.336Z,19.54
2016-05-24T01:43:27.667Z,19.64
2016-05-24T01:44:27.717Z,19.59
2016-05-24T01:45:27.719Z,19.62
2016-05-24T01:46:27.738Z,19.56
2016-05-24T01:47:27.787Z,19.59
2016-05-24T01:48:27.790Z,19.67
2016-05-24T01:49:27.668Z,19.62
2016-05-24T01:50:27.858Z,19.62
2016-05-24T01:51:27.876Z,19.66
2016-05-24T01:52:27.895Z,19.63
2016-05-24T01:53:27.928Z,19.54
2016-05-24T01:54:27.962Z,19.63
2016-05-24T01:55:27.981Z,19.58
2016-05-24T01:56:28.015Z,19.66
2016-05-24T01:57:28.017Z,19.63
2016-05-24T01:58:27.895Z,19.66
2016-05-24T01:59:28.632Z,19.66
2016-05-24T02:00:28.104Z,19.62
2016-05-24T02:01:28.137Z,19.49
2016-05-24T02:02:28.156Z,19.62
2016-05-24T02:03:28.205Z,19.54
2016-05-24T02:04:28.239Z,19.63
2016-05-24T02:05:28.226Z,19.56
2016-05-24T02:06:28.261Z,19.45
2016-05-24T02:07:28.279Z,19.64
2016-05-24T02:08:28.156Z,19.55
2016-05-24T02:09:28.330Z,19.54
2016-05-24T02:10:28.365Z,19.56
2016-05-24T02:11:28.383Z,19.55
2016-05-24T02:12:28.402Z,19.64
2016-05-24T02:13:28.436Z,19.66
2016-05-24T02:14:28.157Z,19.45
2016-05-24T02:15:28.504Z,19.45
2016-05-24T02:16:28.521Z,19.52
2016-05-24T02:17:28.524Z,19.56
2016-05-24T02:18:28.246Z,19.48
2016-05-24T02:19:28.607Z,19.52
2016-05-24T02:20:28.611Z,19.52
2016-05-24T02:21:28.629Z,19.51
2016-05-24T02:22:28.662Z,19.56
2016-05-24T02:23:28.681Z,19.54
2016-05-24T02:24:28.699Z,19.49
2016-05-24T02:25:28.734Z,19.56
2016-05-24T02:26:28.783Z,19.51
2016-05-24T02:27:28.786Z,19.45
2016-05-24T02:28:28.804Z,19.44
2016-05-24T02:29:28.682Z,19.51
2016-05-24T02:30:28.856Z,19.41
2016-05-24T02:31:28.734Z,19.45
2016-05-24T02:32:28.908Z,19.48
2016-05-24T02:33:28.927Z,19.47
2016-05-24T02:34:28.960Z,19.52
2016-05-24T02:35:28.979Z,19.48
2016-05-24T02:36:28.997Z,19.52
2016-05-24T02:37:29.031Z,19.55
2016-05-24T02:38:29.065Z,19.37
2016-05-24T02:39:28.927Z,19.58
2016-05-24T02:40:29.102Z,19.54
2016-05-24T02:41:28.980Z,19.49
2016-05-24T02:42:29.170Z,19.58
2016-05-24T02:43:29.188Z,19.58
2016-05-24T02:44:29.112Z,19.55
2016-05-24T02:45:29.240Z,19.54
2016-05-24T02:46:29.352Z,19.48
2016-05-24T02:47:29.136Z,19.48
2016-05-24T02:48:29.358Z,19.44
2016-05-24T02:49:29.438Z,19.51
2016-05-24T02:50:29.113Z,19.44
2016-05-24T02:51:29.225Z,19.51
2016-05-24T02:52:29.462Z,19.39
2016-05-24T02:53:29.434Z,19.36
2016-05-24T02:54:29.499Z,19.41
2016-05-24T02:55:29.486Z,19.39
2016-05-24T02:56:29.520Z,19.34
2016-05-24T02:57:29.538Z,19.31
2016-05-24T02:58:29.557Z,19.37
2016-05-24T02:59:29.590Z,19.3
2016-05-24T03:00:29.625Z,19.41
2016-05-24T03:01:29.642Z,19.4
2016-05-24T03:02:29.661Z,19.37
2016-05-24T03:03:29.679Z,19.39
2016-05-24T03:04:29.557Z,19.44
2016-05-24T03:05:29.731Z,19.4
2016-05-24T03:06:29.766Z,19.41
2016-05-24T03:07:29.784Z,19.41
2016-05-24T03:08:29.817Z,19.37
2016-05-24T03:09:29.836Z,19.33
2016-05-24T03:10:29.870Z,19.39
2016-05-24T03:11:29.888Z,19.45
2016-05-24T03:12:29.907Z,19.4
2016-05-24T03:13:29.940Z,19.36
2016-05-24T03:14:29.927Z,19.4
2016-05-24T03:15:29.993Z,19.34
2016-05-24T03:16:30.027Z,19.44
2016-05-24T03:17:30.046Z,19.31
2016-05-24T03:18:30.063Z,19.39
2016-05-24T03:19:30.096Z,19.4
2016-05-24T03:20:30.115Z,19.47
2016-05-24T03:21:29.993Z,19.3
2016-05-24T03:22:30.168Z,19.47
2016-05-24T03:23:30.187Z,19.44
2016-05-24T03:24:30.220Z,19.4
2016-05-24T03:25:30.238Z,19.41
2016-05-24T03:26:30.273Z,19.34
2016-05-24T03:27:30.290Z,19.41
2016-05-24T03:28:30.325Z,19.4
2016-05-24T03:29:30.203Z,19.37
2016-05-24T03:30:30.376Z,19.4
2016-05-24T03:31:30.395Z,19.37
2016-05-24T03:32:30.429Z,19.45
2016-05-24T03:33:30.447Z,19.4
2016-05-24T03:34:30.466Z,19.37
2016-05-24T03:35:30.500Z,19.45
2016-05-24T03:36:30.517Z,19.3
2016-05-24T03:37:30.553Z,19.37
2016-05-24T03:38:30.570Z,19.45
2016-05-24T03:39:30.589Z,19.39
2016-05-24T03:40:30.638Z,19.39
2016-05-24T03:41:30.641Z,19.36
2016-05-24T03:42:30.690Z,19.47
2016-05-24T03:43:30.694Z,19.44
2016-05-24T03:44:30.727Z,19.4
2016-05-24T03:45:30.746Z,19.4
2016-05-24T03:46:30.763Z,19.41
2016-05-24T03:47:30.797Z,19.34
2016-05-24T03:48:30.815Z,19.33
2016-05-24T03:49:30.694Z,19.41
2016-05-24T03:50:30.868Z,19.36
2016-05-24T03:51:30.902Z,19.34
2016-05-24T03:52:30.764Z,19.39
2016-05-24T03:53:30.939Z,19.4
2016-05-24T03:54:30.973Z,19.3
2016-05-24T03:55:31.007Z,19.39
2016-05-24T03:56:31.025Z,19.41
2016-05-24T03:57:31.043Z,19.34
2016-05-24T03:58:31.077Z,19.36
2016-05-24T03:59:31.095Z,19.4
2016-05-24T04:00:31.332Z,19.41
2016-05-24T04:01:31.148Z,19.4
2016-05-24T04:02:31.166Z,19.4
2016-05-24T04:03:31.044Z,19.41
2016-05-24T04:04:31.234Z,19.47
2016-05-24T04:05:31.096Z,19.4
2016-05-24T04:06:31.270Z,19.41
2016-05-24T04:07:31.148Z,19.34
2016-05-24T04:08:31.322Z,19.4
2016-05-24T04:09:31.356Z,19.39
2016-05-24T04:10:31.375Z,19.39
2016-05-24T04:11:31.394Z,19.41
2016-05-24T04:12:31.427Z,19.4
2016-05-24T04:13:31.446Z,19.41
2016-05-24T04:14:31.479Z,19.34
2016-05-24T04:15:31.669Z,19.47
2016-05-24T04:16:31.533Z,19.48
2016-05-24T04:17:31.550Z,19.36
2016-05-24T04:18:31.428Z,19.4
2016-05-24T04:19:31.602Z,19.45
2016-05-24T04:20:31.464Z,19.34
2016-05-24T04:21:31.655Z,19.47
2016-05-24T04:22:31.673Z,19.48
2016-05-24T04:23:31.551Z,19.4
2016-05-24T04:24:31.569Z,19.45
2016-05-24T04:25:31.759Z,19.39
2016-05-24T04:26:31.777Z,19.49
2016-05-24T04:27:31.639Z,19.39
2016-05-24T04:28:31.674Z,19.4
2016-05-24T04:29:31.942Z,19.4
2016-05-24T04:30:32.148Z,19.47
2016-05-24T04:31:31.900Z,19.36
2016-05-24T04:32:31.934Z,19.47
2016-05-24T04:33:31.796Z,19.55
2016-05-24T04:34:31.971Z,19.48
2016-05-24T04:35:32.020Z,19.37
2016-05-24T04:36:31.883Z,19.37
2016-05-24T04:37:32.056Z,19.48
2016-05-24T04:38:32.075Z,19.54
2016-05-24T04:39:32.109Z,19.49
2016-05-24T04:40:32.144Z,19.52
2016-05-24T04:41:32.161Z,19.45
2016-05-24T04:42:32.024Z,19.56
2016-05-24T04:43:32.213Z,19.49
2016-05-24T04:44:32.233Z,19.49
2016-05-24T04:45:32.641Z,19.51
2016-05-24T04:46:32.285Z,19.54
2016-05-24T04:47:32.146Z,19.54
2016-05-24T04:48:32.336Z,19.49
2016-05-24T04:49:32.370Z,19.39
2016-05-24T04:50:32.389Z,19.55
2016-05-24T04:51:32.408Z,19.45
2016-05-24T04:52:32.426Z,19.59
2016-05-24T04:53:32.459Z,19.47
2016-05-24T04:54:32.337Z,19.49
2016-05-24T04:55:32.512Z,19.55
2016-05-24T04:56:32.546Z,19.56
2016-05-24T04:57:32.565Z,19.48
2016-05-24T04:58:32.426Z,19.51
2016-05-24T04:59:32.600Z,19.41
2016-05-24T05:00:33.010Z,19.4
2016-05-24T05:01:32.653Z,19.55
2016-05-24T05:02:32.687Z,19.55
2016-05-24T05:03:32.721Z,19.54
2016-05-24T05:04:32.754Z,19.48
2016-05-24T05:05:32.757Z,19.54
2016-05-24T05:06:32.634Z,19.56
2016-05-24T05:07:32.809Z,19.45
2016-05-24T05:08:32.687Z,19.54
2016-05-24T05:09:32.706Z,19.48
2016-05-24T05:10:32.880Z,19.56
2016-05-24T05:11:32.914Z,19.52
2016-05-24T05:12:32.948Z,19.62
2016-05-24T05:13:32.983Z,19.56
2016-05-24T05:14:32.985Z,19.59
2016-05-24T05:15:33.269Z,19.63
2016-05-24T05:16:33.036Z,19.48
2016-05-24T05:17:33.055Z,19.48
2016-05-24T05:18:33.089Z,19.66
2016-05-24T05:19:33.108Z,19.62
2016-05-24T05:20:33.141Z,19.48
2016-05-24T05:21:33.160Z,19.55
2016-05-24T05:22:33.194Z,19.59
2016-05-24T05:23:33.213Z,19.62
2016-05-24T05:24:33.229Z,19.56
2016-05-24T05:25:33.265Z,19.51
2016-05-24T05:26:33.283Z,19.66
2016-05-24T05:27:33.316Z,19.55
2016-05-24T05:28:33.350Z,19.59
2016-05-24T05:29:33.368Z,19.58
2016-05-24T05:30:33.762Z,19.69
2016-05-24T05:31:33.421Z,19.62
2016-05-24T05:32:33.486Z,19.63
2016-05-24T05:33:33.474Z,19.56
2016-05-24T05:34:33.523Z,19.56
2016-05-24T05:35:33.525Z,19.59
2016-05-24T05:36:33.545Z,19.55
2016-05-24T05:37:33.578Z,19.56
2016-05-24T05:38:33.595Z,19.59
2016-05-24T05:39:33.614Z,19.56
2016-05-24T05:40:33.648Z,19.66
2016-05-24T05:41:33.511Z,19.56
2016-05-24T05:42:33.731Z,19.66
2016-05-24T05:43:33.719Z,19.62
2016-05-24T05:44:33.597Z,19.52
2016-05-24T05:45:33.802Z,19.67
2016-05-24T05:46:33.789Z,19.58
2016-05-24T05:47:33.666Z,19.63
2016-05-24T05:48:33.841Z,19.62
2016-05-24T05:49:33.876Z,19.67
2016-05-24T05:50:33.894Z,19.55
2016-05-24T05:51:33.913Z,19.63
2016-05-24T05:52:33.962Z,19.62
2016-05-24T05:53:33.980Z,19.55
2016-05-24T05:54:33.998Z,19.52
2016-05-24T05:55:34.016Z,19.59
2016-05-24T05:56:34.051Z,19.7
2016-05-24T05:57:34.085Z,19.66
2016-05-24T05:58:34.103Z,19.67
2016-05-24T05:59:34.121Z,19.69
2016-05-24T06:00:34.984Z,19.63
2016-05-24T06:01:34.173Z,19.67
2016-05-24T06:02:34.051Z,19.67
2016-05-24T06:03:34.225Z,19.69
2016-05-24T06:04:34.260Z,19.63
2016-05-24T06:05:34.278Z,19.67
2016-05-24T06:06:34.343Z,19.73
2016-05-24T06:07:34.330Z,19.7
2016-05-24T06:08:34.364Z,19.69
2016-05-24T06:09:34.225Z,19.71
2016-05-24T06:10:34.400Z,19.73
2016-05-24T06:11:34.139Z,19.71
2016-05-24T06:12:35.016Z,19.74
2016-05-24T06:13:34.189Z,19.69
2016-05-24T06:14:34.506Z,19.74
2016-05-24T06:15:37.680Z,19.73
2016-05-24T06:16:34.557Z,19.66
2016-05-24T06:17:34.669Z,19.73
2016-05-24T06:18:34.453Z,19.74
2016-05-24T06:19:34.644Z,19.7
2016-05-24T06:20:34.663Z,19.71
2016-05-24T06:21:34.680Z,19.73
2016-05-24T06:22:34.543Z,19.76
2016-05-24T06:23:34.732Z,19.71
2016-05-24T06:24:34.610Z,19.69
2016-05-24T06:25:34.785Z,19.71
2016-05-24T06:26:34.819Z,19.73
2016-05-24T06:27:34.837Z,19.7
2016-05-24T06:28:34.871Z,19.77
2016-05-24T06:29:34.890Z,19.71
2016-05-24T06:30:34.767Z,19.79
2016-05-24T06:31:34.785Z,19.74
2016-05-24T06:32:34.976Z,19.73
2016-05-24T06:33:34.994Z,19.71
2016-05-24T06:34:35.028Z,19.82
2016-05-24T06:35:35.031Z,19.79
2016-05-24T06:36:34.909Z,19.79
2016-05-24T06:37:34.942Z,19.84
2016-05-24T06:38:35.117Z,19.81
2016-05-24T06:39:35.135Z,19.81
2016-05-24T06:40:35.013Z,19.82
2016-05-24T06:41:35.187Z,19.81
2016-05-24T06:42:35.221Z,19.82
2016-05-24T06:43:35.239Z,19.7
2016-05-24T06:44:35.133Z,19.76
2016-05-24T06:45:35.714Z,19.73
2016-05-24T06:46:35.326Z,19.73
2016-05-24T06:47:35.344Z,19.77
2016-05-24T06:48:35.378Z,19.73
2016-05-24T06:49:35.397Z,19.73
2016-05-24T06:50:36.025Z,19.81
2016-05-24T06:51:35.449Z,19.73
2016-05-24T06:52:35.327Z,19.81
2016-05-24T06:53:35.501Z,19.73
2016-05-24T06:54:35.535Z,19.7
2016-05-24T06:55:35.569Z,19.81
2016-05-24T06:56:35.415Z,19.77
2016-05-24T06:57:35.621Z,19.81
2016-05-24T06:58:35.499Z,19.73
2016-05-24T06:59:35.643Z,19.81
2016-05-24T07:00:35.692Z,19.79
2016-05-24T07:01:35.710Z,19.76
2016-05-24T07:02:35.729Z,19.76
2016-05-24T07:03:35.762Z,19.66
2016-05-24T07:04:35.624Z,19.71
2016-05-24T07:05:35.799Z,19.67
2016-05-24T07:06:35.832Z,19.69
2016-05-24T07:07:35.851Z,19.63
2016-05-24T07:08:35.885Z,19.7
2016-05-24T07:09:35.920Z,19.67
2016-05-24T07:10:35.937Z,19.59
2016-05-24T07:11:36.003Z,19.67
2016-05-24T07:12:35.990Z,19.63
2016-05-24T07:13:36.009Z,19.62
2016-05-24T07:14:36.026Z,19.58
2016-05-24T07:15:35.919Z,19.62
2016-05-24T07:16:36.078Z,19.64
2016-05-24T07:17:36.237Z,19.63
2016-05-24T07:18:36.036Z,19.58
2016-05-24T07:19:36.164Z,19.56
2016-05-24T07:20:36.199Z,19.63
2016-05-24T07:21:35.905Z,19.55
2016-05-24T07:22:36.235Z,19.63
2016-05-24T07:23:36.332Z,19.56
2016-05-24T07:24:36.303Z,19.56
2016-05-24T07:25:36.322Z,19.58
2016-05-24T07:26:36.261Z,19.69
2016-05-24T07:27:36.436Z,19.44
2016-05-24T07:28:36.408Z,19.64
2016-05-24T07:29:36.254Z,19.48
2016-05-24T07:30:36.444Z,19.52
2016-05-24T07:31:36.462Z,19.56
2016-05-24T07:32:36.496Z,19.52
2016-05-24T07:33:36.359Z,19.52
2016-05-24T07:34:36.627Z,19.52
2016-05-24T07:35:36.567Z,19.51
2016-05-24T07:36:36.585Z,19.56
2016-05-24T07:37:36.604Z,19.58
2016-05-24T07:38:36.638Z,19.54
2016-05-24T07:39:36.656Z,19.52
2016-05-24T07:40:36.690Z,19.55
2016-05-24T07:41:36.708Z,19.49
2016-05-24T07:42:36.742Z,19.55
2016-05-24T07:43:36.870Z,19.51
2016-05-24T07:44:36.794Z,19.36
2016-05-24T07:45:36.532Z,19.49
2016-05-24T07:46:36.862Z,19.41
2016-05-24T07:47:36.708Z,19.36
2016-05-24T07:48:36.900Z,19.39
2016-05-24T07:49:36.761Z,19.37
2016-05-24T07:50:37.061Z,19.3
2016-05-24T07:51:37.173Z,19.45
2016-05-24T07:52:37.003Z,19.26
2016-05-24T07:53:37.022Z,19.27
2016-05-24T07:54:37.040Z,19.34
2016-05-24T07:55:37.074Z,19.34
2016-05-24T07:56:37.108Z,19.3
2016-05-24T07:57:36.970Z,19.36
2016-05-24T07:58:37.144Z,19.27
2016-05-24T07:59:37.179Z,19.29
2016-05-24T08:00:37.212Z,19.29
2016-05-24T08:01:37.074Z,19.27
2016-05-24T08:02:37.093Z,19.29
2016-05-24T08:03:37.283Z,19.37
2016-05-24T08:04:37.146Z,19.31
2016-05-24T08:05:37.163Z,19.3
2016-05-24T08:06:37.354Z,19.3
2016-05-24T08:07:37.465Z,19.31
2016-05-24T08:08:37.406Z,19.29
2016-05-24T08:09:37.534Z,19.34
2016-05-24T08:10:37.443Z,19.31
2016-05-24T08:11:37.492Z,19.33
2016-05-24T08:12:37.417Z,19.31
2016-05-24T08:13:37.373Z,19.31
2016-05-24T08:14:37.656Z,19.37
2016-05-24T08:15:37.597Z,19.31
2016-05-24T08:16:37.506Z,19.34
2016-05-24T08:17:37.634Z,19.34
2016-05-24T08:18:37.651Z,19.31
2016-05-24T08:19:37.794Z,19.3
2016-05-24T08:20:37.875Z,19.34
2016-05-24T08:21:37.614Z,19.34
2016-05-24T08:22:37.787Z,19.3
2016-05-24T08:23:37.869Z,19.27
2016-05-24T08:24:37.653Z,19.31
2016-05-24T08:25:37.827Z,19.39
2016-05-24T08:26:37.844Z,19.34
2016-05-24T08:27:37.722Z,19.4
2016-05-24T08:28:37.944Z,19.3
2016-05-24T08:29:38.025Z,19.33
2016-05-24T08:30:39.730Z,19.34
2016-05-24T08:31:38.093Z,19.44
2016-05-24T08:32:38.127Z,19.41
2016-05-24T08:33:38.035Z,19.36
2016-05-24T08:34:37.991Z,19.44
2016-05-24T08:35:38.088Z,19.37
2016-05-24T08:36:38.122Z,19.45
2016-05-24T08:37:38.140Z,19.4
2016-05-24T08:38:38.018Z,19.37
2016-05-24T08:39:38.176Z,19.48
2016-05-24T08:40:38.070Z,19.41
2016-05-24T08:41:38.245Z,19.49
2016-05-24T08:42:38.279Z,19.48
2016-05-24T08:43:38.298Z,19.48
2016-05-24T08:44:38.315Z,19.55
2016-05-24T08:45:38.349Z,19.52
2016-05-24T08:46:38.211Z,19.52
2016-05-24T08:47:38.386Z,19.58
2016-05-24T08:48:38.419Z,19.58
2016-05-24T08:49:38.531Z,19.49
2016-05-24T08:50:38.457Z,19.56
2016-05-24T08:51:38.522Z,19.55
2016-05-24T08:52:38.524Z,19.47
2016-05-24T08:53:38.558Z,19.67
2016-05-24T08:54:38.561Z,19.47
2016-05-24T08:55:38.438Z,19.47
2016-05-24T08:56:38.551Z,19.7
2016-05-24T08:57:38.491Z,19.52
2016-05-24T08:58:38.541Z,19.63
2016-05-24T08:59:38.715Z,19.51
2016-05-24T09:00:39.202Z,19.56
2016-05-24T09:01:38.736Z,19.54
2016-05-24T09:02:38.613Z,19.58
2016-05-24T09:03:38.789Z,19.63
2016-05-24T09:04:38.822Z,19.59
2016-05-24T09:05:38.840Z,19.58
2016-05-24T09:06:38.859Z,19.55
2016-05-24T09:07:38.893Z,19.59
2016-05-24T09:08:39.021Z,19.52
2016-05-24T09:09:38.945Z,19.63
2016-05-24T09:10:39.010Z,19.63
2016-05-24T09:11:38.998Z,19.69
2016-05-24T09:12:39.016Z,19.66
2016-05-24T09:13:39.049Z,19.64
2016-05-24T09:14:39.084Z,19.58
2016-05-24T09:15:39.134Z,19.58
2016-05-24T09:16:38.979Z,19.67
2016-05-24T09:17:39.201Z,19.71
2016-05-24T09:18:39.187Z,19.69
2016-05-24T09:19:39.269Z,19.67
2016-05-24T09:20:39.240Z,19.71
2016-05-24T09:21:39.321Z,19.71
2016-05-24T09:22:39.120Z,19.82
2016-05-24T09:23:39.311Z,19.79
2016-05-24T09:24:39.173Z,19.77
2016-05-24T09:25:39.364Z,19.73
2016-05-24T09:26:39.475Z,19.79
2016-05-24T09:27:39.430Z,19.86
2016-05-24T09:28:39.434Z,19.89
2016-05-24T09:29:39.452Z,19.79
2016-05-24T09:30:39.502Z,19.89
2016-05-24T09:31:39.192Z,19.89
2016-05-24T09:32:39.382Z,19.92
2016-05-24T09:33:39.557Z,19.88
2016-05-24T09:34:39.591Z,19.94
2016-05-24T09:35:39.608Z,19.84
2016-05-24T09:36:39.532Z,19.89
2016-05-24T09:37:39.505Z,19.95
2016-05-24T09:38:39.695Z,19.94
2016-05-24T09:39:39.713Z,19.89
2016-05-24T09:40:39.810Z,19.94
2016-05-24T09:41:39.765Z,19.89
2016-05-24T09:42:39.799Z,19.94
2016-05-24T09:43:39.818Z,19.96
2016-05-24T09:44:39.898Z,19.92
2016-05-24T09:45:40.057Z,19.94
2016-05-24T09:46:39.747Z,19.94
2016-05-24T09:47:39.923Z,20.03
2016-05-24T09:48:39.941Z,20.02
2016-05-24T09:49:39.974Z,20.02
2016-05-24T09:50:39.993Z,20.11
2016-05-24T09:51:40.026Z,20.18
2016-05-24T09:52:39.889Z,20.11
2016-05-24T09:53:39.767Z,20.18
2016-05-24T09:54:40.097Z,20.18
2016-05-24T09:55:40.131Z,20.11
2016-05-24T09:56:40.165Z,20.26
2016-05-24T09:57:40.183Z,20.24
2016-05-24T09:58:40.295Z,20.28
2016-05-24T09:59:40.127Z,20.25
2016-05-24T10:00:40.270Z,20.34
2016-05-24T10:01:40.132Z,20.28
2016-05-24T10:02:40.369Z,20.29
2016-05-24T10:03:40.388Z,20.37
2016-05-24T10:04:40.358Z,20.26
2016-05-24T10:05:40.501Z,20.44
2016-05-24T10:06:40.424Z,20.32
2016-05-24T10:07:40.480Z,20.32
2016-05-24T10:08:40.520Z,20.43
2016-05-24T10:09:40.561Z,20.32
2016-05-24T10:10:40.461Z,20.47
2016-05-24T10:11:40.648Z,20.31
2016-05-24T10:12:40.674Z,20.4
2016-05-24T10:13:40.904Z,20.41
2016-05-24T10:14:41.289Z,20.37
2016-05-24T10:15:40.832Z,20.5
2016-05-24T10:16:40.902Z,20.51
2016-05-24T10:17:40.845Z,20.44
2016-05-24T10:18:40.881Z,20.41
2016-05-24T10:19:40.918Z,20.51
2016-05-24T10:20:40.799Z,20.5
2016-05-24T10:21:40.975Z,20.41
2016-05-24T10:22:40.994Z,20.51
2016-05-24T10:23:41.233Z,20.41
2016-05-24T10:24:41.032Z,20.43
2016-05-24T10:25:41.068Z,20.5
2016-05-24T10:26:42.462Z,20.48
2016-05-24T10:27:41.184Z,20.43
2016-05-24T10:28:41.156Z,20.43
2016-05-24T10:29:41.174Z,20.47
2016-05-24T10:30:41.052Z,20.48
2016-05-24T10:31:41.243Z,20.5
2016-05-24T10:32:41.262Z,20.55
2016-05-24T10:33:41.279Z,20.58
2016-05-24T10:34:41.313Z,20.67
2016-05-24T10:35:41.378Z,20.63
2016-05-24T10:36:41.350Z,20.63
2016-05-24T10:37:41.384Z,20.59
2016-05-24T10:38:41.246Z,20.7
2016-05-24T10:39:41.280Z,20.74
2016-05-24T10:40:41.329Z,20.74
2016-05-24T10:41:41.504Z,20.77
2016-05-24T10:42:41.522Z,20.77
2016-05-24T10:43:41.541Z,20.75
2016-05-24T10:44:41.575Z,20.87
2016-05-24T10:45:41.452Z,20.77
2016-05-24T10:46:41.627Z,20.82
2016-05-24T10:47:41.661Z,20.84
2016-05-24T10:48:41.508Z,20.8
2016-05-24T10:49:41.697Z,20.88
2016-05-24T10:50:41.716Z,20.85
2016-05-24T10:51:41.750Z,20.93
2016-05-24T10:52:41.783Z,20.93
2016-05-24T10:53:41.880Z,20.92
2016-05-24T10:54:41.663Z,20.92
2016-05-24T10:55:41.854Z,21
2016-05-24T10:56:41.872Z,20.97
2016-05-24T10:57:41.907Z,21.06
2016-05-24T10:58:41.940Z,21.03
2016-05-24T10:59:41.959Z,21.06
2016-05-24T11:00:41.929Z,21.07
2016-05-24T11:01:42.011Z,21.11
2016-05-24T11:02:42.045Z,21.14
2016-05-24T11:03:42.157Z,21.2
2016-05-24T11:04:42.098Z,21.25
2016-05-24T11:05:42.131Z,21.29
2016-05-24T11:06:42.290Z,21.24
2016-05-24T11:07:42.262Z,21.25
2016-05-24T11:08:42.045Z,21.29
2016-05-24T11:09:42.220Z,21.29
2016-05-24T11:10:42.254Z,21.32
2016-05-24T11:11:42.116Z,21.32
2016-05-24T11:12:42.150Z,21.25
2016-05-24T11:13:42.214Z,21.32
2016-05-24T11:14:42.390Z,21.33
2016-05-24T11:15:42.267Z,21.33
2016-05-24T11:16:42.254Z,21.4
2016-05-24T11:17:42.445Z,21.42
2016-05-24T11:18:42.463Z,21.42
2016-05-24T11:19:42.403Z,21.39
2016-05-24T11:20:42.516Z,21.39
2016-05-24T11:21:42.643Z,21.45
2016-05-24T11:22:42.411Z,21.43
2016-05-24T11:23:42.461Z,21.46
2016-05-24T11:24:42.619Z,21.43
2016-05-24T11:25:42.685Z,21.46
2016-05-24T11:26:42.688Z,21.37
2016-05-24T11:27:42.580Z,21.54
2016-05-24T11:28:42.568Z,21.48
2016-05-24T11:29:42.602Z,21.51
2016-05-24T11:30:42.621Z,21.51
2016-05-24T11:31:42.810Z,21.43
2016-05-24T11:32:42.688Z,21.45
2016-05-24T11:33:42.988Z,21.46
2016-05-24T11:34:42.897Z,21.58
2016-05-24T11:35:42.915Z,21.52
2016-05-24T11:36:42.933Z,21.52
2016-05-24T11:37:42.811Z,21.57
2016-05-24T11:38:43.017Z,21.51
2016-05-24T11:39:43.020Z,21.61
2016-05-24T11:40:43.053Z,21.57
2016-05-24T11:41:43.072Z,21.6
2016-05-24T11:42:43.106Z,21.58
2016-05-24T11:43:43.123Z,21.55
2016-05-24T11:44:43.173Z,21.67
2016-05-24T11:45:43.207Z,21.6
2016-05-24T11:46:43.053Z,21.72
2016-05-24T11:47:43.525Z,21.66
2016-05-24T11:48:43.278Z,21.69
2016-05-24T11:49:43.312Z,21.69
2016-05-24T11:50:43.315Z,21.76
2016-05-24T11:51:43.191Z,21.67
2016-05-24T11:52:43.367Z,21.69
2016-05-24T11:53:43.480Z,21.72
2016-05-24T11:54:43.435Z,21.67
2016-05-24T11:55:43.297Z,21.67
2016-05-24T11:56:43.471Z,21.77
2016-05-24T11:57:43.193Z,21.79
2016-05-24T11:58:43.383Z,21.8
2016-05-24T11:59:43.401Z,21.8
2016-05-24T12:00:43.794Z,21.79
2016-05-24T12:01:43.626Z,21.77
2016-05-24T12:02:43.643Z,21.88
2016-05-24T12:03:43.521Z,21.82
2016-05-24T12:04:43.696Z,21.83
2016-05-24T12:05:43.558Z,21.83
2016-05-24T12:06:43.842Z,21.77
2016-05-24T12:07:43.626Z,21.82
2016-05-24T12:08:43.816Z,21.77
2016-05-24T12:09:43.866Z,21.8
2016-05-24T12:10:43.853Z,21.75
2016-05-24T12:11:43.887Z,21.88
2016-05-24T12:12:43.905Z,21.79
2016-05-24T12:13:43.783Z,21.8
2016-05-24T12:14:44.036Z,21.77
2016-05-24T12:15:44.194Z,21.83
2016-05-24T12:16:44.072Z,21.85
2016-05-24T12:17:44.044Z,21.85
2016-05-24T12:18:44.093Z,21.89
2016-05-24T12:19:43.955Z,21.82
2016-05-24T12:20:44.113Z,21.83
2016-05-24T12:21:44.164Z,21.88
2016-05-24T12:22:44.182Z,21.88
2016-05-24T12:23:44.216Z,21.85
2016-05-24T12:24:44.233Z,21.83
2016-05-24T12:25:44.253Z,21.91
2016-05-24T12:26:44.349Z,21.82
2016-05-24T12:27:44.304Z,21.88
2016-05-24T12:28:44.432Z,21.88
2016-05-24T12:29:44.372Z,21.85
2016-05-24T12:30:44.922Z,21.85
2016-05-24T12:31:44.410Z,21.91
2016-05-24T12:32:44.443Z,21.91
2016-05-24T12:33:44.337Z,21.82
2016-05-24T12:34:44.511Z,21.8
2016-05-24T12:35:44.546Z,21.89
2016-05-24T12:36:44.610Z,21.85
2016-05-24T12:37:44.582Z,21.85
2016-05-24T12:38:44.600Z,21.79
2016-05-24T12:39:44.649Z,21.89
2016-05-24T12:40:44.512Z,21.85
2016-05-24T12:41:44.764Z,21.89
2016-05-24T12:42:44.720Z,21.82
2016-05-24T12:43:44.753Z,21.89
2016-05-24T12:44:46.350Z,21.88
2016-05-24T12:45:45.104Z,21.88
2016-05-24T12:46:44.840Z,21.89
2016-05-24T12:47:44.874Z,21.83
2016-05-24T12:48:44.877Z,21.8
2016-05-24T12:49:46.880Z,21.89
2016-05-24T12:50:45.054Z,21.88
2016-05-24T12:51:44.979Z,21.83
2016-05-24T12:52:44.997Z,21.83
2016-05-24T12:53:45.016Z,21.82
2016-05-24T12:54:45.050Z,21.88